Time;durP1;ratioP1;P1;durP2;ratioP2;P2;SDS_P1;SDS_P2;PMS_P1;PMS_P2;Temp;Humidity;BMP_temperature;BMP_pressure;BME280_temperature;BME280_humidity;BME280_pressure;Samples;Min_cycle;Max_cycle;Signal;HPM_P1;HPM_P2
2023/05/31 00:01:58;;;;;;;3.75;2.92;;;13.50;79.10;;;;;;5083832;28;20066;-69
2023/05/31 00:04:25;;;;;;;3.47;2.80;;;13.50;79.30;;;;;;5081057;28;20025;-68
2023/05/31 00:06:50;;;;;;;3.50;2.90;;;13.50;79.40;;;;;;5073117;28;20040;-68
2023/05/31 00:09:16;;;;;;;5.55;3.15;;;13.50;79.50;;;;;;5074909;28;20129;-68
2023/05/31 00:11:41;;;;;;;3.42;2.92;;;13.40;79.60;;;;;;5072886;28;20047;-68
2023/05/31 00:14:07;;;;;;;3.88;2.75;;;13.40;79.90;;;;;;5077066;28;20107;-70
2023/05/31 00:16:33;;;;;;;4.22;3.00;;;13.40;79.90;;;;;;5084936;28;20042;-70
2023/05/31 00:18:58;;;;;;;3.95;2.65;;;13.40;80.00;;;;;;5080862;28;20021;-70
2023/05/31 00:21:24;;;;;;;4.65;2.95;;;13.40;80.10;;;;;;5074224;28;20035;-69
2023/05/31 00:23:50;;;;;;;3.33;2.60;;;13.30;80.10;;;;;;5075151;28;20033;-69
2023/05/31 00:26:15;;;;;;;4.75;3.15;;;13.30;80.30;;;;;;5071663;28;20024;-70
2023/05/31 00:28:41;;;;;;;4.35;2.90;;;13.30;80.30;;;;;;5076451;28;20035;-69
2023/05/31 00:31:06;;;;;;;3.92;3.20;;;13.30;80.40;;;;;;5072967;28;20021;-68
2023/05/31 00:33:32;;;;;;;4.90;3.10;;;13.20;80.50;;;;;;5073078;28;20028;-70
2023/05/31 00:35:57;;;;;;;4.90;3.33;;;13.20;80.70;;;;;;5075603;28;20020;-69
2023/05/31 00:38:23;;;;;;;4.78;3.50;;;13.20;80.90;;;;;;5074143;28;20093;-69
2023/05/31 00:40:48;;;;;;;4.40;3.00;;;13.20;81.20;;;;;;5077761;28;20107;-69
2023/05/31 00:43:14;;;;;;;3.65;2.92;;;13.20;81.30;;;;;;5072998;28;20045;-69
2023/05/31 00:45:39;;;;;;;3.95;3.00;;;13.20;81.40;;;;;;5072224;28;20029;-69
2023/05/31 00:48:05;;;;;;;5.13;3.30;;;13.10;81.30;;;;;;5072706;28;20048;-70
2023/05/31 00:50:31;;;;;;;4.07;3.08;;;13.10;81.40;;;;;;5076183;28;20050;-68
2023/05/31 00:52:59;;;;;;;4.75;3.13;;;13.10;81.40;;;;;;5072456;28;20100;-69
2023/05/31 00:55:25;;;;;;;4.95;3.40;;;13.10;81.60;;;;;;5088146;28;20024;-70
2023/05/31 00:57:51;;;;;;;4.60;3.25;;;13.10;81.60;;;;;;5078861;28;20038;-70
2023/05/31 01:00:17;;;;;;;4.88;3.55;;;13.10;81.70;;;;;;5074041;28;20028;-71
2023/05/31 01:02:43;;;;;;;5.38;3.38;;;13.10;82.40;;;;;;5074000;28;20506;-71
2023/05/31 01:05:09;;;;;;;4.72;3.42;;;13.00;81.90;;;;;;5080458;28;20024;-70
2023/05/31 01:07:36;;;;;;;4.30;3.35;;;13.00;81.90;;;;;;5071161;28;20031;-71
2023/05/31 01:10:04;;;;;;;5.40;3.58;;;13.00;82.10;;;;;;5072084;28;20386;-70
2023/05/31 01:12:40;;;;;;;5.15;3.53;;;13.00;82.40;;;;;;5070922;28;20061;-70
2023/05/31 01:15:41;;;;;;;6.53;4.13;;;12.90;82.60;;;;;;5073224;28;20032;-70
2023/05/31 01:18:32;;;;;;;6.28;3.80;;;12.90;82.80;;;;;;5064302;28;20048;-69
2023/05/31 01:21:01;;;;;;;5.65;3.70;;;12.90;82.90;;;;;;5068038;28;20023;-70
2023/05/31 01:23:41;;;;;;;5.20;3.70;;;12.90;82.90;;;;;;5068722;28;20051;-68
2023/05/31 01:26:29;;;;;;;7.32;3.72;;;12.80;83.10;;;;;;5070021;28;20115;-69
2023/05/31 01:29:00;;;;;;;6.03;3.63;;;12.80;83.10;;;;;;5070316;28;20059;-68
2023/05/31 01:31:29;;;;;;;4.63;3.33;;;12.80;83.20;;;;;;5073678;28;20093;-69
2023/05/31 01:33:55;;;;;;;6.30;3.58;;;12.80;83.20;;;;;;5080569;28;20077;-69
2023/05/31 01:36:21;;;;;;;4.90;3.90;;;12.80;83.20;;;;;;5070639;28;20434;-69
2023/05/31 01:38:46;;;;;;;6.05;3.97;;;12.70;83.40;;;;;;5070068;28;20024;-69
2023/05/31 01:41:14;;;;;;;6.45;4.35;;;12.80;83.40;;;;;;5076138;28;20035;-69
2023/05/31 01:43:44;;;;;;;6.07;4.30;;;12.80;83.90;;;;;;5070029;28;20037;-69
2023/05/31 01:46:12;;;;;;;5.47;3.85;;;12.70;84.10;;;;;;5069362;28;20024;-69
2023/05/31 01:48:38;;;;;;;6.45;4.20;;;12.70;83.90;;;;;;5070251;28;20042;-69
2023/05/31 01:51:08;;;;;;;7.88;4.28;;;12.70;83.90;;;;;;5080968;28;20056;-69
2023/05/31 01:53:34;;;;;;;6.50;4.20;;;12.70;84.20;;;;;;5082160;28;20020;-69
2023/05/31 01:56:01;;;;;;;5.47;3.92;;;12.70;84.20;;;;;;5082076;28;20390;-69
2023/05/31 01:58:27;;;;;;;6.95;5.10;;;12.70;84.20;;;;;;5070889;28;20040;-70
2023/05/31 02:00:53;;;;;;;9.25;4.97;;;12.70;84.40;;;;;;5077756;28;20024;-68
2023/05/31 02:03:18;;;;;;;7.82;4.80;;;12.60;85.20;;;;;;5068450;28;20030;-69
2023/05/31 02:05:56;;;;;;;6.88;4.88;;;12.60;85.00;;;;;;5079797;28;20064;-69
2023/05/31 02:08:23;;;;;;;6.03;4.43;;;12.60;85.10;;;;;;5064697;28;20453;-69
2023/05/31 02:10:49;;;;;;;7.78;5.50;;;12.60;85.40;;;;;;5068417;28;20114;-69
2023/05/31 02:13:14;;;;;;;6.82;4.50;;;12.60;85.70;;;;;;5069813;28;20482;-69
2023/05/31 02:15:41;;;;;;;7.25;4.72;;;12.60;85.50;;;;;;5080596;28;20295;-69
2023/05/31 02:18:07;;;;;;;6.60;4.88;;;12.60;85.40;;;;;;5070109;28;20390;-69
2023/05/31 02:20:33;;;;;;;7.63;4.82;;;12.60;85.30;;;;;;5067824;28;20383;-69
2023/05/31 02:22:59;;;;;;;6.38;4.60;;;12.50;85.20;;;;;;5082875;28;20027;-69
2023/05/31 02:25:25;;;;;;;7.57;5.32;;;12.50;85.10;;;;;;5079398;28;20636;-69
2023/05/31 02:27:50;;;;;;;9.32;5.95;;;12.50;85.30;;;;;;5079797;28;20581;-70
2023/05/31 02:30:16;;;;;;;7.85;5.80;;;12.40;85.50;;;;;;5072469;28;20032;-70
2023/05/31 02:32:42;;;;;;;8.43;5.72;;;12.40;85.80;;;;;;5081391;28;20055;-70
2023/05/31 02:35:09;;;;;;;7.55;5.80;;;12.40;86.40;;;;;;5074369;28;20039;-70
2023/05/31 02:37:37;;;;;;;7.07;5.15;;;12.40;86.20;;;;;;5070320;28;20028;-70
2023/05/31 02:40:08;;;;;;;7.95;5.43;;;12.40;86.20;;;;;;5086010;28;20024;-70
2023/05/31 02:42:39;;;;;;;6.90;5.03;;;12.50;86.00;;;;;;5077587;28;20028;-71
2023/05/31 02:45:05;;;;;;;8.13;5.55;;;12.50;86.50;;;;;;5076399;28;20103;-69
2023/05/31 02:47:31;;;;;;;7.43;5.28;;;12.40;86.00;;;;;;5076359;28;20032;-70
2023/05/31 02:49:56;;;;;;;8.23;6.10;;;12.40;86.20;;;;;;5079781;28;20108;-69
2023/05/31 02:52:23;;;;;;;8.02;5.28;;;12.40;86.40;;;;;;5077312;28;20059;-70
2023/05/31 02:54:49;;;;;;;8.48;5.53;;;12.40;86.30;;;;;;5073112;28;20031;-69
2023/05/31 02:57:15;;;;;;;10.00;6.40;;;12.40;86.50;;;;;;5070277;28;20048;-69
2023/05/31 02:59:43;;;;;;;8.40;5.63;;;12.40;86.60;;;;;;5069797;28;20110;-70
2023/05/31 03:02:08;;;;;;;9.20;6.25;;;12.40;86.60;;;;;;5069690;28;20032;-70
2023/05/31 03:04:34;;;;;;;8.23;5.57;;;12.40;86.60;;;;;;5068334;28;20158;-70
2023/05/31 03:07:00;;;;;;;8.27;5.30;;;12.40;86.60;;;;;;5066239;28;20525;-70
2023/05/31 03:09:25;;;;;;;6.85;4.60;;;12.40;86.50;;;;;;5082936;28;20029;-68
2023/05/31 03:11:51;;;;;;;8.35;5.95;;;12.40;86.40;;;;;;5072932;28;20020;-69
2023/05/31 03:14:16;;;;;;;9.48;6.13;;;12.40;86.70;;;;;;5071175;28;20032;-69
2023/05/31 03:16:43;;;;;;;8.73;5.85;;;12.30;86.80;;;;;;5069045;28;20025;-68
2023/05/31 03:19:08;;;;;;;8.55;5.70;;;12.30;86.80;;;;;;5068847;28;20078;-69
2023/05/31 03:21:34;;;;;;;8.00;5.60;;;12.30;86.80;;;;;;5068742;28;20040;-70
2023/05/31 03:23:59;;;;;;;9.68;6.20;;;12.30;86.80;;;;;;5085348;28;20060;-72
2023/05/31 03:26:25;;;;;;;8.80;5.97;;;12.30;86.80;;;;;;5079324;28;20032;-70
2023/05/31 03:28:51;;;;;;;8.05;5.97;;;12.30;86.90;;;;;;5083338;28;20031;-70
2023/05/31 03:31:18;;;;;;;8.48;5.78;;;12.30;86.80;;;;;;5076490;28;20024;-70
2023/05/31 03:33:44;;;;;;;8.43;6.05;;;12.30;86.70;;;;;;5072710;28;20082;-70
2023/05/31 03:36:10;;;;;;;7.00;5.40;;;12.30;86.70;;;;;;5072993;28;20016;-70
2023/05/31 03:38:36;;;;;;;9.73;6.53;;;12.40;86.60;;;;;;5074116;28;20028;-70
2023/05/31 03:41:01;;;;;;;8.70;6.15;;;12.30;86.50;;;;;;5075126;28;20138;-69
2023/05/31 03:43:27;;;;;;;7.78;5.40;;;12.30;86.50;;;;;;5072127;28;20400;-68
2023/05/31 03:45:52;;;;;;;7.85;6.05;;;12.30;86.50;;;;;;5075514;28;20150;-69
2023/05/31 03:48:18;;;;;;;7.88;5.53;;;12.30;86.40;;;;;;5073943;28;20032;-69
2023/05/31 03:50:44;;;;;;;10.40;6.85;;;12.40;86.50;;;;;;5080826;28;20026;-71
2023/05/31 03:53:10;;;;;;;9.00;5.80;;;12.30;86.40;;;;;;5073811;28;20017;-71
2023/05/31 03:55:36;;;;;;;10.70;7.22;;;12.30;86.40;;;;;;5072837;28;20471;-72
2023/05/31 03:58:02;;;;;;;8.73;6.07;;;12.30;86.70;;;;;;5073136;28;20202;-72
2023/05/31 04:00:28;;;;;;;10.25;7.65;;;12.30;86.70;;;;;;5070911;28;20029;-71
2023/05/31 04:02:54;;;;;;;11.98;7.30;;;12.30;87.20;;;;;;5080472;28;20038;-70
2023/05/31 04:05:19;;;;;;;10.38;6.85;;;12.30;87.50;;;;;;5078246;28;20104;-70
2023/05/31 04:07:45;;;;;;;10.38;6.53;;;12.30;87.50;;;;;;5074349;28;20060;-69
2023/05/31 04:10:11;;;;;;;9.95;6.07;;;12.30;87.30;;;;;;5072508;28;20027;-70
2023/05/31 04:12:36;;;;;;;9.32;6.68;;;12.30;87.20;;;;;;5072959;28;20099;-69
2023/05/31 04:15:02;;;;;;;10.25;6.82;;;12.30;87.00;;;;;;5085653;28;20498;-69
2023/05/31 04:17:28;;;;;;;11.55;7.90;;;12.30;87.00;;;;;;5075575;28;20387;-70
2023/05/31 04:19:53;;;;;;;11.60;8.10;;;12.30;87.00;;;;;;5073940;28;20024;-69
2023/05/31 04:22:20;;;;;;;10.98;7.72;;;12.30;87.00;;;;;;5083643;28;20033;-69
2023/05/31 04:24:46;;;;;;;10.27;6.95;;;12.30;87.20;;;;;;5074728;28;20487;-69
2023/05/31 04:27:17;;;;;;;11.40;8.23;;;12.30;87.30;;;;;;5071555;28;20051;-71
2023/05/31 04:29:45;;;;;;;11.05;7.47;;;12.40;87.50;;;;;;5072819;28;20025;-70
2023/05/31 04:32:14;;;;;;;11.18;8.07;;;12.40;87.40;;;;;;5072176;28;20020;-70
2023/05/31 04:34:40;;;;;;;13.30;8.75;;;12.40;87.40;;;;;;5073928;28;20382;-70
2023/05/31 04:37:07;;;;;;;13.15;8.63;;;12.40;87.80;;;;;;5074563;28;20020;-69
2023/05/31 04:39:32;;;;;;;13.05;9.27;;;12.50;87.80;;;;;;5066116;28;20028;-69
2023/05/31 04:41:59;;;;;;;14.85;9.35;;;12.50;87.70;;;;;;5070572;28;20025;-70
2023/05/31 04:44:24;;;;;;;13.52;8.80;;;12.50;87.80;;;;;;5072939;28;20035;-71
2023/05/31 04:46:50;;;;;;;13.90;9.50;;;12.50;87.80;;;;;;5079328;28;20025;-70
2023/05/31 04:49:16;;;;;;;13.45;9.48;;;12.50;87.80;;;;;;5081486;28;20024;-71
2023/05/31 04:51:41;;;;;;;12.95;8.80;;;12.50;88.00;;;;;;5071440;28;20443;-72
2023/05/31 04:54:08;;;;;;;12.52;8.88;;;12.60;87.90;;;;;;5065834;28;20017;-71
2023/05/31 04:56:33;;;;;;;14.05;9.48;;;12.70;87.80;;;;;;5080985;28;20032;-70
2023/05/31 04:58:59;;;;;;;13.82;8.38;;;12.80;87.40;;;;;;5069183;28;20067;-70
2023/05/31 05:01:24;;;;;;;13.02;8.65;;;12.80;87.10;;;;;;5072266;28;20049;-70
2023/05/31 05:03:52;;;;;;;14.30;9.88;;;12.90;87.00;;;;;;5070335;28;20032;-70
2023/05/31 05:06:18;;;;;;;14.18;9.73;;;13.00;86.70;;;;;;5074377;28;20029;-70
2023/05/31 05:08:45;;;;;;;14.80;10.10;;;13.10;86.40;;;;;;5075139;28;20103;-71
2023/05/31 05:11:11;;;;;;;13.57;9.23;;;13.20;86.40;;;;;;5071859;28;20116;-69
2023/05/31 05:13:37;;;;;;;16.20;9.25;;;13.40;86.20;;;;;;5081926;28;20027;-70
2023/05/31 05:16:03;;;;;;;12.25;8.88;;;13.90;85.10;;;;;;5072041;28;20025;-70
2023/05/31 05:18:31;;;;;;;12.13;7.70;;;14.50;83.10;;;;;;5077689;28;20065;-72
2023/05/31 05:20:57;;;;;;;14.43;9.38;;;15.00;81.10;;;;;;5068586;28;20037;-70
2023/05/31 05:23:24;;;;;;;12.35;8.63;;;15.40;79.40;;;;;;5071664;28;20027;-70
2023/05/31 05:25:49;;;;;;;10.13;7.53;;;15.50;78.40;;;;;;5071554;28;20033;-71
2023/05/31 05:28:15;;;;;;;12.75;9.10;;;15.90;77.30;;;;;;5076445;28;20025;-71
2023/05/31 05:30:40;;;;;;;13.30;8.95;;;16.20;76.10;;;;;;5080264;28;20095;-71
2023/05/31 05:33:06;;;;;;;11.18;8.05;;;16.50;74.90;;;;;;5073514;28;20027;-69
2023/05/31 05:35:32;;;;;;;14.02;9.52;;;16.80;73.90;;;;;;5075739;28;20031;-71
2023/05/31 05:37:59;;;;;;;11.82;8.30;;;17.00;73.00;;;;;;5075185;28;20024;-70
2023/05/31 05:40:25;;;;;;;12.38;8.45;;;17.30;72.30;;;;;;5077444;28;20120;-72
2023/05/31 05:42:50;;;;;;;13.27;9.48;;;17.60;71.10;;;;;;5073608;28;20087;-70
2023/05/31 05:45:16;;;;;;;9.30;7.20;;;17.70;70.40;;;;;;5073221;28;20387;-70
2023/05/31 05:47:44;;;;;;;10.15;7.97;;;17.90;70.00;;;;;;5072252;28;20028;-71
2023/05/31 05:50:11;;;;;;;8.88;6.53;;;18.00;69.50;;;;;;5075045;28;20021;-71
2023/05/31 05:52:37;;;;;;;11.57;7.20;;;18.30;69.10;;;;;;5071215;28;20096;-71
2023/05/31 05:55:03;;;;;;;10.13;7.25;;;18.40;68.50;;;;;;5069069;28;20017;-70
2023/05/31 05:57:29;;;;;;;12.52;7.20;;;18.60;68.50;;;;;;5071138;28;20059;-72
2023/05/31 05:59:55;;;;;;;13.27;8.43;;;18.70;67.90;;;;;;5080637;28;20506;-70
2023/05/31 06:02:21;;;;;;;12.00;8.25;;;18.40;67.60;;;;;;5072125;28;20035;-71
2023/05/31 06:04:47;;;;;;;12.38;7.97;;;18.30;68.30;;;;;;5073130;28;20032;-71
2023/05/31 06:07:12;;;;;;;9.50;6.85;;;18.30;68.00;;;;;;5071204;28;20063;-71
2023/05/31 06:09:38;;;;;;;10.10;7.28;;;18.30;68.90;;;;;;5073734;28;20031;-71
2023/05/31 06:12:04;;;;;;;11.52;7.47;;;18.40;69.00;;;;;;5072666;28;20060;-70
2023/05/31 06:14:29;;;;;;;10.10;6.88;;;18.30;68.10;;;;;;5071524;28;20048;-72
2023/05/31 06:16:55;;;;;;;11.60;6.80;;;18.20;69.20;;;;;;5074367;28;20036;-71
2023/05/31 06:19:20;;;;;;;8.38;5.82;;;18.10;68.90;;;;;;5082561;28;20029;-72
2023/05/31 06:21:47;;;;;;;8.80;6.75;;;18.00;69.70;;;;;;5073342;28;20024;-71
2023/05/31 06:24:13;;;;;;;10.13;6.60;;;17.80;69.50;;;;;;5085968;28;20020;-72
2023/05/31 06:26:38;;;;;;;10.57;7.03;;;17.60;70.20;;;;;;5076511;28;20036;-72
2023/05/31 06:29:04;;;;;;;9.30;5.82;;;17.50;70.40;;;;;;5076227;28;20141;-71
2023/05/31 06:31:31;;;;;;;9.25;6.13;;;17.50;70.90;;;;;;5068907;28;20214;-72
2023/05/31 06:33:56;;;;;;;9.02;5.95;;;17.60;70.90;;;;;;5070119;28;20024;-72
2023/05/31 06:36:22;;;;;;;8.40;5.30;;;17.70;70.70;;;;;;5078641;28;20043;-71
2023/05/31 06:38:48;;;;;;;9.90;5.68;;;17.80;70.60;;;;;;5071199;28;20086;-71
2023/05/31 06:41:13;;;;;;;7.95;5.57;;;18.00;70.30;;;;;;5070111;28;20024;-71
2023/05/31 06:43:39;;;;;;;9.85;5.95;;;18.10;69.70;;;;;;5070714;28;20020;-71
2023/05/31 06:46:07;;;;;;;9.13;5.55;;;18.20;69.50;;;;;;5069007;28;20048;-71
2023/05/31 06:48:33;;;;;;;7.35;4.75;;;18.40;69.00;;;;;;5070638;28;20037;-71
2023/05/31 06:50:59;;;;;;;8.13;5.30;;;18.40;68.60;;;;;;5067421;28;20078;-71
2023/05/31 06:53:25;;;;;;;9.52;4.88;;;18.60;68.30;;;;;;5071750;28;20497;-71
2023/05/31 06:55:51;;;;;;;9.10;4.78;;;18.80;67.90;;;;;;5077064;28;20038;-71
2023/05/31 06:58:17;;;;;;;11.55;6.15;;;18.80;67.10;;;;;;5073238;28;20479;-71
2023/05/31 07:00:42;;;;;;;8.57;5.30;;;18.70;66.20;;;;;;5074055;28;20024;-71
2023/05/31 07:03:08;;;;;;;8.98;5.20;;;18.80;66.70;;;;;;5066135;28;20056;-71
2023/05/31 07:05:34;;;;;;;9.48;5.80;;;18.90;66.50;;;;;;5074647;28;20028;-70
2023/05/31 07:08:00;;;;;;;6.90;4.63;;;19.00;66.10;;;;;;5070652;28;20020;-71
2023/05/31 07:10:27;;;;;;;7.70;5.10;;;19.10;66.10;;;;;;5073036;28;20012;-71
2023/05/31 07:12:53;;;;;;;8.25;4.90;;;19.30;65.70;;;;;;5072820;28;20020;-71
2023/05/31 07:15:19;;;;;;;7.82;4.90;;;19.50;65.40;;;;;;5078083;28;20659;-71
2023/05/31 07:17:45;;;;;;;8.88;4.60;;;19.70;64.80;;;;;;5076887;28;20058;-70
2023/05/31 07:20:11;;;;;;;9.63;5.40;;;19.80;64.30;;;;;;5077364;28;20410;-70
2023/05/31 07:22:37;;;;;;;10.55;5.03;;;19.80;63.30;;;;;;5074420;28;20070;-71
2023/05/31 07:25:03;;;;;;;9.98;5.68;;;19.70;63.10;;;;;;5080993;28;20129;-71
2023/05/31 07:27:29;;;;;;;8.73;4.60;;;19.70;63.30;;;;;;5070478;28;20151;-70
2023/05/31 07:29:55;;;;;;;6.32;4.00;;;19.80;63.60;;;;;;5079961;28;20035;-71
2023/05/31 07:32:21;;;;;;;9.02;4.80;;;20.00;63.70;;;;;;5074883;28;20619;-71
2023/05/31 07:34:47;;;;;;;7.95;4.30;;;20.20;63.30;;;;;;5083415;28;20024;-71
2023/05/31 07:37:13;;;;;;;7.50;4.75;;;20.30;63.00;;;;;;5072585;28;20095;-71
2023/05/31 07:39:38;;;;;;;6.90;4.35;;;20.50;62.60;;;;;;5073087;28;20494;-71
2023/05/31 07:42:04;;;;;;;9.30;5.00;;;20.60;62.30;;;;;;5079023;28;20028;-71
2023/05/31 07:44:30;;;;;;;8.07;4.88;;;20.70;61.90;;;;;;5074356;28;20557;-70
2023/05/31 07:46:56;;;;;;;8.00;5.68;;;20.60;61.00;;;;;;5080911;28;20025;-70
2023/05/31 07:49:21;;;;;;;7.47;4.35;;;20.40;60.90;;;;;;5075571;28;20047;-71
2023/05/31 07:51:47;;;;;;;11.45;5.72;;;20.40;61.20;;;;;;5077156;28;20059;-71
2023/05/31 07:54:12;;;;;;;9.25;5.50;;;20.30;60.90;;;;;;5087984;28;20497;-72
2023/05/31 07:56:38;;;;;;;8.05;4.80;;;20.30;61.30;;;;;;5071499;28;20128;-71
2023/05/31 07:59:04;;;;;;;6.45;4.10;;;20.40;61.40;;;;;;5073073;28;20104;-71
2023/05/31 08:01:30;;;;;;;8.25;4.30;;;20.60;61.20;;;;;;5071894;28;20024;-72
2023/05/31 08:04:06;;;;;;;8.60;4.45;;;20.90;61.00;;;;;;5078545;28;20031;-72
2023/05/31 08:06:32;;;;;;;7.47;4.30;;;21.00;60.60;;;;;;5085340;28;20081;-71
2023/05/31 08:08:58;;;;;;;6.65;4.43;;;21.20;60.50;;;;;;5072972;28;20028;-72
2023/05/31 08:11:25;;;;;;;7.20;4.88;;;21.30;60.00;;;;;;5084145;28;20017;-72
2023/05/31 08:13:51;;;;;;;9.82;5.70;;;21.30;59.70;;;;;;5069424;28;20155;-70
2023/05/31 08:16:17;;;;;;;9.13;5.03;;;21.10;58.80;;;;;;5075069;28;20103;-70
2023/05/31 08:18:44;;;;;;;11.45;4.80;;;21.10;59.50;;;;;;5071805;28;20684;-69
2023/05/31 08:21:10;;;;;;;7.35;4.40;;;21.30;59.40;;;;;;5074448;28;20035;-69
2023/05/31 08:23:36;;;;;;;8.13;4.95;;;21.50;59.30;;;;;;5072255;28;20025;-70
2023/05/31 08:26:02;;;;;;;9.23;5.80;;;21.40;58.30;;;;;;5072630;28;20035;-70
2023/05/31 08:28:29;;;;;;;10.18;4.60;;;21.10;58.20;;;;;;5077911;28;20483;-69
2023/05/31 08:30:55;;;;;;;7.57;4.72;;;21.10;59.30;;;;;;5080558;28;20071;-70
2023/05/31 08:33:21;;;;;;;9.13;4.65;;;21.30;59.70;;;;;;5072576;28;20463;-69
2023/05/31 08:35:46;;;;;;;7.80;4.57;;;21.40;59.10;;;;;;5073181;28;20028;-69
2023/05/31 08:38:12;;;;;;;8.25;4.20;;;21.50;58.90;;;;;;5076151;28;20024;-69
2023/05/31 08:40:38;;;;;;;8.07;4.18;;;21.50;58.30;;;;;;5079412;28;20046;-69
2023/05/31 08:43:15;;;;;;;8.02;4.00;;;21.70;58.50;;;;;;5074075;28;20432;-70
2023/05/31 08:45:44;;;;;;;7.15;3.60;;;21.90;58.30;;;;;;5074833;28;20383;-70
2023/05/31 08:48:30;;;;;;;10.40;4.85;;;22.10;58.70;;;;;;5078750;28;20024;-70
2023/05/31 08:50:56;;;;;;;10.73;4.22;;;21.90;55.60;;;;;;5076937;28;20662;-70
2023/05/31 08:53:25;;;;;;;8.32;4.50;;;21.80;56.30;;;;;;5080564;28;20036;-70
2023/05/31 08:55:52;;;;;;;7.50;3.72;;;21.60;56.30;;;;;;5078039;28;20009;-70
2023/05/31 08:58:19;;;;;;;9.90;4.35;;;21.70;56.80;;;;;;5065028;28;20131;-70
2023/05/31 09:00:46;;;;;;;7.82;3.80;;;21.80;56.00;;;;;;5072909;28;20023;-70
2023/05/31 09:03:11;;;;;;;5.80;3.30;;;21.90;56.20;;;;;;5071503;28;20028;-70
2023/05/31 09:05:37;;;;;;;6.78;3.50;;;22.10;56.10;;;;;;5073816;28;20791;-70
2023/05/31 09:08:03;;;;;;;8.40;3.42;;;22.30;55.90;;;;;;5073828;28;20036;-70
2023/05/31 09:10:29;;;;;;;6.70;3.50;;;22.50;56.50;;;;;;5071476;28;20055;-70
2023/05/31 09:12:56;;;;;;;9.00;3.92;;;22.70;55.60;;;;;;5067829;28;20029;-70
2023/05/31 09:15:25;;;;;;;6.57;3.58;;;22.70;55.10;;;;;;5070437;28;20079;-70
2023/05/31 09:17:52;;;;;;;8.70;3.83;;;22.80;54.80;;;;;;5072117;28;20526;-70
2023/05/31 09:20:18;;;;;;;6.55;3.42;;;22.90;54.60;;;;;;5069192;28;20074;-70
2023/05/31 09:22:50;;;;;;;7.50;3.83;;;23.00;54.60;;;;;;5064387;28;20086;-70
2023/05/31 09:25:16;;;;;;;6.70;3.40;;;23.00;54.30;;;;;;5069444;28;20043;-70
2023/05/31 09:27:42;;;;;;;6.38;3.00;;;23.00;54.10;;;;;;5066782;28;20422;-70
2023/05/31 09:30:13;;;;;;;6.25;3.80;;;23.20;54.50;;;;;;5069415;28;20036;-70
2023/05/31 09:32:39;;;;;;;8.60;3.63;;;23.20;53.10;;;;;;5065481;28;20029;-70
2023/05/31 09:35:16;;;;;;;7.07;3.72;;;23.00;53.10;;;;;;5063475;28;20365;-70
2023/05/31 09:37:46;;;;;;;5.97;2.97;;;23.00;52.10;;;;;;5068403;28;20074;-70
2023/05/31 09:40:13;;;;;;;7.90;3.10;;;22.80;52.70;;;;;;5069448;28;20497;-70
2023/05/31 09:42:47;;;;;;;5.55;2.90;;;22.70;52.60;;;;;;5068301;28;20036;-70
2023/05/31 09:45:12;;;;;;;4.50;2.50;;;22.80;53.40;;;;;;5068730;28;20505;-71
2023/05/31 09:47:38;;;;;;;6.78;2.38;;;23.00;53.40;;;;;;5070107;28;20028;-70
2023/05/31 09:50:04;;;;;;;5.38;2.55;;;23.30;52.90;;;;;;5065850;28;20107;-70
2023/05/31 09:52:37;;;;;;;5.30;3.10;;;23.50;52.30;;;;;;5075058;28;20047;-70
2023/05/31 09:55:07;;;;;;;5.88;2.50;;;23.50;51.50;;;;;;5063139;28;20910;-70
2023/05/31 09:57:40;;;;;;;6.00;2.92;;;23.60;51.60;;;;;;5065820;28;20491;-71
2023/05/31 10:00:14;;;;;;;7.47;2.97;;;23.50;50.70;;;;;;5067503;28;20020;-70
2023/05/31 10:02:53;;;;;;;8.88;3.00;;;23.30;50.60;;;;;;5063445;28;20099;-69
2023/05/31 10:05:20;;;;;;;6.78;2.95;;;23.40;50.90;;;;;;5064241;28;20029;-69
2023/05/31 10:07:51;;;;;;;6.55;3.28;;;23.40;50.90;;;;;;5067705;28;20032;-70
2023/05/31 10:10:22;;;;;;;5.20;2.70;;;23.40;51.10;;;;;;5068902;28;20024;-70
2023/05/31 10:12:54;;;;;;;7.43;3.50;;;23.60;51.20;;;;;;5074993;28;20031;-69
2023/05/31 10:15:25;;;;;;;5.15;2.88;;;23.50;50.20;;;;;;5069746;28;20395;-69
2023/05/31 10:17:54;;;;;;;6.32;2.90;;;23.50;51.00;;;;;;5076881;28;20028;-70
2023/05/31 10:20:21;;;;;;;6.38;2.50;;;23.70;51.20;;;;;;5076843;28;20021;-69
2023/05/31 10:22:52;;;;;;;5.82;2.60;;;23.90;51.10;;;;;;5073091;28;20031;-69
2023/05/31 10:25:25;;;;;;;8.43;3.63;;;24.10;50.50;;;;;;5067954;28;20036;-70
2023/05/31 10:27:55;;;;;;;7.85;3.05;;;23.90;50.00;;;;;;5064805;28;20055;-69
2023/05/31 10:30:26;;;;;;;5.32;2.38;;;24.00;50.30;;;;;;5067591;28;20450;-69
2023/05/31 10:33:07;;;;;;;7.20;2.88;;;24.20;50.10;;;;;;5074553;28;20437;-70
2023/05/31 10:35:32;;;;;;;5.28;2.83;;;24.30;49.40;;;;;;5067999;28;20052;-69
2023/05/31 10:38:00;;;;;;;5.68;2.70;;;24.10;48.80;;;;;;5065746;28;20059;-70
2023/05/31 10:40:43;;;;;;;6.63;2.85;;;24.00;49.00;;;;;;5070494;28;20140;-70
2023/05/31 10:43:33;;;;;;;5.13;2.45;;;24.00;49.60;;;;;;5073848;28;20032;-70
2023/05/31 10:46:08;;;;;;;4.68;2.65;;;24.30;49.80;;;;;;5077721;28;20511;-69
2023/05/31 10:48:55;;;;;;;4.50;2.28;;;24.50;49.30;;;;;;5078327;28;20036;-69
2023/05/31 10:51:39;;;;;;;7.55;2.90;;;24.50;49.00;;;;;;5072932;28;20050;-69
2023/05/31 10:54:05;;;;;;;7.18;3.20;;;24.60;49.10;;;;;;5076331;28;21536;-69
2023/05/31 10:56:31;;;;;;;6.00;3.03;;;24.50;49.00;;;;;;5082073;28;20016;-69
2023/05/31 10:58:57;;;;;;;7.85;3.00;;;24.50;49.10;;;;;;5076992;28;20024;-69
2023/05/31 11:01:28;;;;;;;8.20;2.80;;;24.50;49.30;;;;;;5076908;28;20363;-69
2023/05/31 11:03:57;;;;;;;6.72;3.15;;;24.60;49.00;;;;;;5078500;28;20597;-69
2023/05/31 11:06:27;;;;;;;5.60;3.25;;;24.80;48.70;;;;;;5078510;28;20614;-69
2023/05/31 11:09:15;;;;;;;5.97;3.17;;;24.70;48.10;;;;;;5076391;28;20049;-69
2023/05/31 11:11:40;;;;;;;4.40;2.45;;;24.40;48.30;;;;;;5077871;28;20122;-70
2023/05/31 11:14:25;;;;;;;6.75;3.28;;;24.40;49.20;;;;;;5080586;28;20095;-70
2023/05/31 11:16:53;;;;;;;5.93;3.00;;;24.50;48.80;;;;;;5077557;28;20024;-70
2023/05/31 11:19:25;;;;;;;6.55;2.63;;;24.30;48.30;;;;;;5076403;28;20037;-70
2023/05/31 11:21:52;;;;;;;3.75;1.55;;;24.50;48.70;;;;;;5069642;28;20024;-69
2023/05/31 11:24:29;;;;;;;6.72;2.83;;;24.90;48.30;;;;;;5073169;28;20081;-69
2023/05/31 11:26:56;;;;;;;6.47;2.30;;;25.00;47.60;;;;;;5066146;28;20029;-69
2023/05/31 11:29:22;;;;;;;8.80;3.28;;;25.20;47.50;;;;;;5070339;28;20020;-69
2023/05/31 11:31:51;;;;;;;9.63;3.15;;;25.10;46.50;;;;;;5077989;28;20028;-70
2023/05/31 11:34:33;;;;;;;7.30;3.05;;;25.00;47.40;;;;;;5074548;28;20020;-70
2023/05/31 11:37:03;;;;;;;7.35;3.45;;;25.00;47.60;;;;;;5073371;28;20021;-68
2023/05/31 11:39:29;;;;;;;5.70;3.20;;;24.80;47.40;;;;;;5070049;28;20039;-69
2023/05/31 11:41:56;;;;;;;5.15;2.70;;;25.00;48.10;;;;;;5067967;28;20130;-70
2023/05/31 11:44:28;;;;;;;5.70;3.00;;;25.20;47.90;;;;;;5086159;28;20486;-70
2023/05/31 11:47:00;;;;;;;7.22;3.25;;;25.30;48.00;;;;;;5082927;28;20680;-70
2023/05/31 11:49:26;;;;;;;6.65;3.38;;;25.30;47.30;;;;;;5072609;28;20023;-70
2023/05/31 11:51:55;;;;;;;8.63;3.38;;;25.40;47.70;;;;;;5077300;28;20115;-70
2023/05/31 11:54:29;;;;;;;5.85;2.85;;;25.30;47.40;;;;;;5072666;28;20027;-70
2023/05/31 11:57:06;;;;;;;7.15;3.40;;;25.40;47.60;;;;;;5076914;28;20093;-70
2023/05/31 11:59:35;;;;;;;4.60;2.88;;;25.20;46.90;;;;;;5075411;28;20120;-70
2023/05/31 12:02:02;;;;;;;7.00;3.05;;;25.30;47.10;;;;;;5082008;28;20402;-69
2023/05/31 12:04:40;;;;;;;4.57;2.90;;;25.40;47.20;;;;;;5076318;28;20197;-70
2023/05/31 12:07:09;;;;;;;6.93;2.90;;;25.50;46.70;;;;;;5066210;28;20029;-68
2023/05/31 12:09:35;;;;;;;6.82;2.70;;;25.80;46.80;;;;;;5069018;28;20029;-70
2023/05/31 12:12:05;;;;;;;5.13;2.42;;;26.00;46.30;;;;;;5070777;28;20040;-69
2023/05/31 12:14:31;;;;;;;6.15;2.70;;;26.20;46.00;;;;;;5070757;28;20020;-69
2023/05/31 12:17:02;;;;;;;6.38;2.90;;;26.30;45.70;;;;;;5069939;28;20024;-69
2023/05/31 12:19:28;;;;;;;5.13;2.80;;;26.40;45.60;;;;;;5067430;28;20024;-70
2023/05/31 12:21:53;;;;;;;7.00;2.85;;;26.50;45.50;;;;;;5072573;28;20028;-69
2023/05/31 12:24:19;;;;;;;5.65;2.85;;;26.50;45.20;;;;;;5069152;28;20024;-69
2023/05/31 12:26:48;;;;;;;5.82;3.00;;;26.60;45.00;;;;;;5070700;28;20075;-69
2023/05/31 12:29:15;;;;;;;7.07;3.15;;;26.60;44.80;;;;;;5072261;28;20031;-69
2023/05/31 12:31:41;;;;;;;6.25;2.80;;;26.60;44.80;;;;;;5072983;28;20099;-69
2023/05/31 12:34:11;;;;;;;5.35;2.90;;;26.70;44.80;;;;;;5068889;28;20021;-69
2023/05/31 12:36:45;;;;;;;6.85;3.22;;;26.80;44.60;;;;;;5069292;28;20109;-69
2023/05/31 12:39:24;;;;;;;6.55;2.80;;;26.70;43.90;;;;;;5070678;28;20020;-69
2023/05/31 12:41:51;;;;;;;6.97;2.75;;;26.70;44.50;;;;;;5066955;28;20073;-69
2023/05/31 12:44:20;;;;;;;5.70;2.60;;;26.80;44.10;;;;;;5070886;28;20596;-69
2023/05/31 12:46:46;;;;;;;5.90;2.60;;;26.80;44.20;;;;;;5069029;28;20024;-69
2023/05/31 12:49:22;;;;;;;5.85;2.60;;;26.90;44.20;;;;;;5071918;28;20024;-69